sensor_id;sensor_type;location;lat;lon;timestamp;P1;durP1;ratioP1;P2;durP2;ratioP2
62880;SDS011;48969;49.934;8.596;2023-08-24T00:01:02;5.28;;;4.75;;
62880;SDS011;48969;49.934;8.596;2023-08-24T00:03:27;6.80;;;5.10;;
62880;SDS011;48969;49.934;8.596;2023-08-24T00:05:53;7.10;;;5.10;;
62880;SDS011;48969;49.934;8.596;2023-08-24T00:08:18;5.35;;;4.57;;
62880;SDS011;48969;49.934;8.596;2023-08-24T00:10:44;5.70;;;4.78;;
62880;SDS011;48969;49.934;8.596;2023-08-24T00:13:11;5.82;;;4.43;;
62880;SDS011;48969;49.934;8.596;2023-08-24T00:15:37;5.97;;;4.65;;
62880;SDS011;48969;49.934;8.596;2023-08-24T00:18:04;7.00;;;4.85;;
62880;SDS011;48969;49.934;8.596;2023-08-24T00:20:30;7.32;;;5.47;;
62880;SDS011;48969;49.934;8.596;2023-08-24T00:22:57;5.57;;;4.90;;
62880;SDS011;48969;49.934;8.596;2023-08-24T00:25:23;6.60;;;4.95;;
62880;SDS011;48969;49.934;8.596;2023-08-24T00:27:48;6.13;;;5.05;;
62880;SDS011;48969;49.934;8.596;2023-08-24T00:30:14;6.25;;;4.85;;
62880;SDS011;48969;49.934;8.596;2023-08-24T00:32:39;6.85;;;5.38;;
62880;SDS011;48969;49.934;8.596;2023-08-24T00:35:05;4.93;;;4.43;;
62880;SDS011;48969;49.934;8.596;2023-08-24T00:37:32;6.90;;;4.72;;
62880;SDS011;48969;49.934;8.596;2023-08-24T00:40:00;6.25;;;5.25;;
62880;SDS011;48969;49.934;8.596;2023-08-24T00:42:29;6.00;;;5.40;;
62880;SDS011;48969;49.934;8.596;2023-08-24T00:44:54;6.43;;;5.28;;
62880;SDS011;48969;49.934;8.596;2023-08-24T00:47:20;7.40;;;5.63;;
62880;SDS011;48969;49.934;8.596;2023-08-24T00:49:45;6.57;;;5.97;;
62880;SDS011;48969;49.934;8.596;2023-08-24T00:52:10;7.53;;;5.70;;
62880;SDS011;48969;49.934;8.596;2023-08-24T00:54:36;8.45;;;5.70;;
62880;SDS011;48969;49.934;8.596;2023-08-24T00:57:04;6.30;;;5.68;;
62880;SDS011;48969;49.934;8.596;2023-08-24T00:59:31;6.95;;;5.78;;
62880;SDS011;48969;49.934;8.596;2023-08-24T01:01:56;6.80;;;5.35;;
62880;SDS011;48969;49.934;8.596;2023-08-24T01:04:24;6.00;;;5.20;;
62880;SDS011;48969;49.934;8.596;2023-08-24T01:06:49;6.50;;;5.70;;
62880;SDS011;48969;49.934;8.596;2023-08-24T01:09:15;7.82;;;5.82;;
62880;SDS011;48969;49.934;8.596;2023-08-24T01:14:30;7.35;;;6.13;;
62880;SDS011;48969;49.934;8.596;2023-08-24T01:17:04;7.88;;;5.78;;
62880;SDS011;48969;49.934;8.596;2023-08-24T01:19:37;7.88;;;6.13;;
62880;SDS011;48969;49.934;8.596;2023-08-24T01:22:07;6.85;;;6.03;;
62880;SDS011;48969;49.934;8.596;2023-08-24T01:24:47;6.80;;;6.10;;
62880;SDS011;48969;49.934;8.596;2023-08-24T01:27:17;7.00;;;5.93;;
62880;SDS011;48969;49.934;8.596;2023-08-24T01:29:44;7.80;;;6.97;;
62880;SDS011;48969;49.934;8.596;2023-08-24T01:32:10;9.88;;;7.63;;
62880;SDS011;48969;49.934;8.596;2023-08-24T01:34:37;8.80;;;7.40;;
62880;SDS011;48969;49.934;8.596;2023-08-24T01:37:03;8.35;;;7.55;;
62880;SDS011;48969;49.934;8.596;2023-08-24T01:39:35;8.85;;;7.95;;
62880;SDS011;48969;49.934;8.596;2023-08-24T01:42:08;9.88;;;8.23;;
62880;SDS011;48969;49.934;8.596;2023-08-24T01:44:40;9.13;;;8.23;;
62880;SDS011;48969;49.934;8.596;2023-08-24T01:47:12;10.05;;;9.05;;
62880;SDS011;48969;49.934;8.596;2023-08-24T01:49:38;9.60;;;8.70;;
62880;SDS011;48969;49.934;8.596;2023-08-24T01:52:05;9.25;;;8.35;;
62880;SDS011;48969;49.934;8.596;2023-08-24T01:54:31;11.32;;;9.25;;
62880;SDS011;48969;49.934;8.596;2023-08-24T01:56:56;9.85;;;8.85;;
62880;SDS011;48969;49.934;8.596;2023-08-24T01:59:21;10.45;;;9.38;;
62880;SDS011;48969;49.934;8.596;2023-08-24T02:01:47;10.20;;;8.70;;
62880;SDS011;48969;49.934;8.596;2023-08-24T02:04:12;9.68;;;8.73;;
62880;SDS011;48969;49.934;8.596;2023-08-24T02:06:37;11.88;;;8.48;;
62880;SDS011;48969;49.934;8.596;2023-08-24T02:09:02;10.23;;;9.02;;
62880;SDS011;48969;49.934;8.596;2023-08-24T02:11:28;9.52;;;8.73;;
62880;SDS011;48969;49.934;8.596;2023-08-24T02:13:53;9.80;;;8.85;;
62880;SDS011;48969;49.934;8.596;2023-08-24T02:16:18;9.15;;;8.25;;
62880;SDS011;48969;49.934;8.596;2023-08-24T02:18:43;9.75;;;8.75;;
62880;SDS011;48969;49.934;8.596;2023-08-24T02:21:09;9.65;;;8.50;;
62880;SDS011;48969;49.934;8.596;2023-08-24T02:23:36;9.90;;;9.00;;
62880;SDS011;48969;49.934;8.596;2023-08-24T02:26:02;10.25;;;9.20;;
62880;SDS011;48969;49.934;8.596;2023-08-24T02:28:28;10.23;;;9.20;;
62880;SDS011;48969;49.934;8.596;2023-08-24T02:30:53;9.73;;;8.77;;
62880;SDS011;48969;49.934;8.596;2023-08-24T02:33:19;9.75;;;8.75;;
62880;SDS011;48969;49.934;8.596;2023-08-24T02:35:46;11.50;;;8.38;;
62880;SDS011;48969;49.934;8.596;2023-08-24T02:38:12;9.57;;;8.68;;
62880;SDS011;48969;49.934;8.596;2023-08-24T02:40:37;9.60;;;8.60;;
62880;SDS011;48969;49.934;8.596;2023-08-24T02:43:03;10.18;;;8.25;;
62880;SDS011;48969;49.934;8.596;2023-08-24T02:45:28;10.43;;;8.70;;
62880;SDS011;48969;49.934;8.596;2023-08-24T02:47:53;9.00;;;8.20;;
62880;SDS011;48969;49.934;8.596;2023-08-24T02:50:19;8.98;;;7.53;;
62880;SDS011;48969;49.934;8.596;2023-08-24T02:52:44;7.28;;;6.53;;
62880;SDS011;48969;49.934;8.596;2023-08-24T02:55:10;8.43;;;6.22;;
62880;SDS011;48969;49.934;8.596;2023-08-24T02:57:36;8.25;;;7.25;;
62880;SDS011;48969;49.934;8.596;2023-08-24T03:00:02;8.07;;;7.28;;
62880;SDS011;48969;49.934;8.596;2023-08-24T03:02:28;7.93;;;6.50;;
62880;SDS011;48969;49.934;8.596;2023-08-24T03:04:54;10.57;;;6.88;;
62880;SDS011;48969;49.934;8.596;2023-08-24T03:07:20;7.55;;;6.75;;
62880;SDS011;48969;49.934;8.596;2023-08-24T03:09:46;6.82;;;6.15;;
62880;SDS011;48969;49.934;8.596;2023-08-24T03:12:11;7.28;;;6.47;;
62880;SDS011;48969;49.934;8.596;2023-08-24T03:14:37;7.63;;;6.80;;
62880;SDS011;48969;49.934;8.596;2023-08-24T03:17:02;9.85;;;6.90;;
62880;SDS011;48969;49.934;8.596;2023-08-24T03:19:29;7.53;;;6.72;;
62880;SDS011;48969;49.934;8.596;2023-08-24T03:21:54;8.13;;;7.30;;
62880;SDS011;48969;49.934;8.596;2023-08-24T03:24:20;9.25;;;7.65;;
62880;SDS011;48969;49.934;8.596;2023-08-24T03:26:45;9.40;;;7.97;;
62880;SDS011;48969;49.934;8.596;2023-08-24T03:29:10;7.72;;;6.85;;
62880;SDS011;48969;49.934;8.596;2023-08-24T03:31:35;8.43;;;7.55;;
62880;SDS011;48969;49.934;8.596;2023-08-24T03:34:01;8.48;;;7.68;;
62880;SDS011;48969;49.934;8.596;2023-08-24T03:36:26;8.50;;;7.70;;
62880;SDS011;48969;49.934;8.596;2023-08-24T03:38:52;9.60;;;8.68;;
62880;SDS011;48969;49.934;8.596;2023-08-24T03:41:17;9.73;;;8.70;;
62880;SDS011;48969;49.934;8.596;2023-08-24T03:43:42;10.45;;;9.43;;
62880;SDS011;48969;49.934;8.596;2023-08-24T03:46:08;9.70;;;8.80;;
62880;SDS011;48969;49.934;8.596;2023-08-24T03:48:33;9.20;;;8.30;;
62880;SDS011;48969;49.934;8.596;2023-08-24T03:50:58;9.25;;;8.35;;
62880;SDS011;48969;49.934;8.596;2023-08-24T03:53:24;10.10;;;9.20;;
62880;SDS011;48969;49.934;8.596;2023-08-24T03:55:50;10.20;;;9.30;;
62880;SDS011;48969;49.934;8.596;2023-08-24T03:58:16;10.35;;;8.77;;
62880;SDS011;48969;49.934;8.596;2023-08-24T04:00:42;9.93;;;8.93;;
62880;SDS011;48969;49.934;8.596;2023-08-24T04:03:08;10.75;;;9.70;;
62880;SDS011;48969;49.934;8.596;2023-08-24T04:05:34;9.82;;;8.77;;
62880;SDS011;48969;49.934;8.596;2023-08-24T04:07:59;10.13;;;9.15;;
62880;SDS011;48969;49.934;8.596;2023-08-24T04:10:26;11.05;;;8.80;;
62880;SDS011;48969;49.934;8.596;2023-08-24T04:12:51;9.90;;;9.00;;
62880;SDS011;48969;49.934;8.596;2023-08-24T04:15:17;10.02;;;8.98;;
62880;SDS011;48969;49.934;8.596;2023-08-24T04:17:43;9.80;;;8.85;;
62880;SDS011;48969;49.934;8.596;2023-08-24T04:20:08;9.52;;;8.57;;
62880;SDS011;48969;49.934;8.596;2023-08-24T04:22:34;10.40;;;8.95;;
62880;SDS011;48969;49.934;8.596;2023-08-24T04:24:59;9.25;;;8.43;;
62880;SDS011;48969;49.934;8.596;2023-08-24T04:27:25;9.07;;;8.18;;
62880;SDS011;48969;49.934;8.596;2023-08-24T04:29:50;9.50;;;8.60;;
62880;SDS011;48969;49.934;8.596;2023-08-24T04:32:15;9.02;;;8.00;;
62880;SDS011;48969;49.934;8.596;2023-08-24T04:34:40;9.15;;;8.35;;
62880;SDS011;48969;49.934;8.596;2023-08-24T04:37:06;9.02;;;8.15;;
62880;SDS011;48969;49.934;8.596;2023-08-24T04:39:32;9.75;;;8.80;;
62880;SDS011;48969;49.934;8.596;2023-08-24T04:41:57;8.95;;;7.93;;
62880;SDS011;48969;49.934;8.596;2023-08-24T04:44:22;8.93;;;8.10;;
62880;SDS011;48969;49.934;8.596;2023-08-24T04:46:49;8.18;;;7.38;;
62880;SDS011;48969;49.934;8.596;2023-08-24T04:49:14;9.05;;;7.70;;
62880;SDS011;48969;49.934;8.596;2023-08-24T04:51:40;8.82;;;7.10;;
62880;SDS011;48969;49.934;8.596;2023-08-24T04:54:05;8.98;;;7.40;;
62880;SDS011;48969;49.934;8.596;2023-08-24T04:56:30;7.78;;;7.05;;
62880;SDS011;48969;49.934;8.596;2023-08-24T04:58:56;8.05;;;7.25;;
62880;SDS011;48969;49.934;8.596;2023-08-24T05:01:23;9.68;;;6.85;;
62880;SDS011;48969;49.934;8.596;2023-08-24T05:03:50;7.32;;;6.63;;
62880;SDS011;48969;49.934;8.596;2023-08-24T05:06:15;7.63;;;6.85;;
62880;SDS011;48969;49.934;8.596;2023-08-24T05:08:40;8.10;;;6.88;;
62880;SDS011;48969;49.934;8.596;2023-08-24T05:11:12;7.90;;;6.80;;
62880;SDS011;48969;49.934;8.596;2023-08-24T05:13:39;7.38;;;6.68;;
62880;SDS011;48969;49.934;8.596;2023-08-24T05:16:09;7.50;;;6.60;;
62880;SDS011;48969;49.934;8.596;2023-08-24T05:18:34;8.75;;;6.50;;
62880;SDS011;48969;49.934;8.596;2023-08-24T05:21:01;8.63;;;7.03;;
62880;SDS011;48969;49.934;8.596;2023-08-24T05:23:30;10.55;;;6.97;;
62880;SDS011;48969;49.934;8.596;2023-08-24T05:25:57;7.75;;;6.65;;
62880;SDS011;48969;49.934;8.596;2023-08-24T05:28:23;7.72;;;6.18;;
62880;SDS011;48969;49.934;8.596;2023-08-24T05:30:50;7.93;;;6.10;;
62880;SDS011;48969;49.934;8.596;2023-08-24T05:33:16;9.23;;;5.95;;
62880;SDS011;48969;49.934;8.596;2023-08-24T05:35:43;6.15;;;5.55;;
62880;SDS011;48969;49.934;8.596;2023-08-24T05:38:08;7.60;;;5.50;;
62880;SDS011;48969;49.934;8.596;2023-08-24T05:40:34;13.27;;;6.18;;
62880;SDS011;48969;49.934;8.596;2023-08-24T05:42:59;10.18;;;6.45;;
62880;SDS011;48969;49.934;8.596;2023-08-24T05:45:25;11.73;;;5.50;;
62880;SDS011;48969;49.934;8.596;2023-08-24T05:47:50;6.68;;;5.22;;
62880;SDS011;48969;49.934;8.596;2023-08-24T05:50:15;7.55;;;4.97;;
62880;SDS011;48969;49.934;8.596;2023-08-24T05:52:41;6.10;;;4.78;;
62880;SDS011;48969;49.934;8.596;2023-08-24T05:55:06;7.25;;;4.97;;
62880;SDS011;48969;49.934;8.596;2023-08-24T05:57:32;5.35;;;4.60;;
62880;SDS011;48969;49.934;8.596;2023-08-24T05:59:57;5.72;;;4.95;;
62880;SDS011;48969;49.934;8.596;2023-08-24T06:02:23;8.60;;;5.15;;
62880;SDS011;48969;49.934;8.596;2023-08-24T06:04:48;8.30;;;5.30;;
62880;SDS011;48969;49.934;8.596;2023-08-24T06:07:16;6.20;;;4.70;;
62880;SDS011;48969;49.934;8.596;2023-08-24T06:09:41;6.80;;;5.32;;
62880;SDS011;48969;49.934;8.596;2023-08-24T06:12:07;5.57;;;4.43;;
62880;SDS011;48969;49.934;8.596;2023-08-24T06:14:35;5.07;;;4.38;;
62880;SDS011;48969;49.934;8.596;2023-08-24T06:17:00;6.55;;;4.70;;
62880;SDS011;48969;49.934;8.596;2023-08-24T06:19:26;8.02;;;4.90;;
62880;SDS011;48969;49.934;8.596;2023-08-24T06:21:51;5.68;;;4.78;;
62880;SDS011;48969;49.934;8.596;2023-08-24T06:24:16;6.70;;;4.78;;
62880;SDS011;48969;49.934;8.596;2023-08-24T06:26:42;5.53;;;4.70;;
62880;SDS011;48969;49.934;8.596;2023-08-24T06:29:07;8.02;;;4.95;;
62880;SDS011;48969;49.934;8.596;2023-08-24T06:31:32;5.63;;;4.10;;
62880;SDS011;48969;49.934;8.596;2023-08-24T06:33:58;5.78;;;4.47;;
62880;SDS011;48969;49.934;8.596;2023-08-24T06:36:24;6.93;;;4.45;;
62880;SDS011;48969;49.934;8.596;2023-08-24T06:38:49;6.75;;;5.13;;
62880;SDS011;48969;49.934;8.596;2023-08-24T06:41:14;6.03;;;5.03;;
62880;SDS011;48969;49.934;8.596;2023-08-24T06:43:40;6.28;;;4.80;;
62880;SDS011;48969;49.934;8.596;2023-08-24T06:46:05;5.60;;;4.75;;
62880;SDS011;48969;49.934;8.596;2023-08-24T06:48:33;5.97;;;4.28;;
62880;SDS011;48969;49.934;8.596;2023-08-24T06:50:59;5.10;;;4.15;;
62880;SDS011;48969;49.934;8.596;2023-08-24T06:53:24;5.53;;;4.32;;
62880;SDS011;48969;49.934;8.596;2023-08-24T06:55:56;5.97;;;4.30;;
62880;SDS011;48969;49.934;8.596;2023-08-24T06:58:22;5.37;;;3.90;;
62880;SDS011;48969;49.934;8.596;2023-08-24T07:00:47;8.13;;;4.20;;
62880;SDS011;48969;49.934;8.596;2023-08-24T07:03:15;6.43;;;4.57;;
62880;SDS011;48969;49.934;8.596;2023-08-24T07:05:44;6.53;;;3.90;;
62880;SDS011;48969;49.934;8.596;2023-08-24T07:08:10;6.55;;;4.50;;
62880;SDS011;48969;49.934;8.596;2023-08-24T07:10:36;7.00;;;4.38;;
62880;SDS011;48969;49.934;8.596;2023-08-24T07:13:06;3.85;;;3.42;;
62880;SDS011;48969;49.934;8.596;2023-08-24T07:15:32;5.25;;;3.92;;
62880;SDS011;48969;49.934;8.596;2023-08-24T07:18:03;4.75;;;4.15;;
62880;SDS011;48969;49.934;8.596;2023-08-24T07:20:30;6.95;;;4.63;;
62880;SDS011;48969;49.934;8.596;2023-08-24T07:22:57;7.78;;;4.22;;
62880;SDS011;48969;49.934;8.596;2023-08-24T07:25:22;6.05;;;4.63;;
62880;SDS011;48969;49.934;8.596;2023-08-24T07:27:48;5.63;;;4.03;;
62880;SDS011;48969;49.934;8.596;2023-08-24T07:30:13;4.38;;;3.55;;
62880;SDS011;48969;49.934;8.596;2023-08-24T07:32:38;4.38;;;3.97;;
62880;SDS011;48969;49.934;8.596;2023-08-24T07:35:04;4.43;;;3.92;;
62880;SDS011;48969;49.934;8.596;2023-08-24T07:37:31;5.00;;;3.85;;
62880;SDS011;48969;49.934;8.596;2023-08-24T07:39:56;4.40;;;3.60;;
62880;SDS011;48969;49.934;8.596;2023-08-24T07:42:22;4.00;;;3.38;;
62880;SDS011;48969;49.934;8.596;2023-08-24T07:44:47;5.88;;;3.67;;
62880;SDS011;48969;49.934;8.596;2023-08-24T07:47:13;5.13;;;3.15;;
62880;SDS011;48969;49.934;8.596;2023-08-24T07:49:38;4.00;;;3.60;;
62880;SDS011;48969;49.934;8.596;2023-08-24T07:52:10;5.10;;;3.22;;
62880;SDS011;48969;49.934;8.596;2023-08-24T07:54:37;4.38;;;3.38;;
62880;SDS011;48969;49.934;8.596;2023-08-24T07:57:02;4.47;;;3.42;;
62880;SDS011;48969;49.934;8.596;2023-08-24T07:59:27;5.68;;;3.60;;
62880;SDS011;48969;49.934;8.596;2023-08-24T08:01:53;4.72;;;3.22;;
62880;SDS011;48969;49.934;8.596;2023-08-24T08:04:18;4.55;;;3.65;;
62880;SDS011;48969;49.934;8.596;2023-08-24T08:06:43;5.68;;;3.63;;
62880;SDS011;48969;49.934;8.596;2023-08-24T08:09:09;5.03;;;3.72;;
62880;SDS011;48969;49.934;8.596;2023-08-24T08:11:34;5.57;;;4.00;;
62880;SDS011;48969;49.934;8.596;2023-08-24T08:14:00;5.50;;;3.85;;
62880;SDS011;48969;49.934;8.596;2023-08-24T08:16:25;5.88;;;3.70;;
62880;SDS011;48969;49.934;8.596;2023-08-24T08:18:50;6.57;;;4.18;;
62880;SDS011;48969;49.934;8.596;2023-08-24T08:21:16;5.43;;;4.05;;
62880;SDS011;48969;49.934;8.596;2023-08-24T08:23:45;6.45;;;4.43;;
62880;SDS011;48969;49.934;8.596;2023-08-24T08:26:11;6.97;;;4.20;;
62880;SDS011;48969;49.934;8.596;2023-08-24T08:28:38;5.18;;;4.10;;
62880;SDS011;48969;49.934;8.596;2023-08-24T08:31:03;5.63;;;4.22;;
62880;SDS011;48969;49.934;8.596;2023-08-24T08:33:29;5.45;;;4.45;;
62880;SDS011;48969;49.934;8.596;2023-08-24T08:35:55;7.75;;;4.43;;
62880;SDS011;48969;49.934;8.596;2023-08-24T08:38:21;5.32;;;4.22;;
62880;SDS011;48969;49.934;8.596;2023-08-24T08:40:50;7.30;;;4.50;;
62880;SDS011;48969;49.934;8.596;2023-08-24T08:43:21;5.65;;;3.95;;
62880;SDS011;48969;49.934;8.596;2023-08-24T08:45:49;5.20;;;3.90;;
62880;SDS011;48969;49.934;8.596;2023-08-24T08:48:15;5.22;;;3.92;;
62880;SDS011;48969;49.934;8.596;2023-08-24T08:50:40;5.47;;;3.75;;
62880;SDS011;48969;49.934;8.596;2023-08-24T08:53:07;6.15;;;4.00;;
62880;SDS011;48969;49.934;8.596;2023-08-24T08:55:32;6.20;;;3.97;;
62880;SDS011;48969;49.934;8.596;2023-08-24T08:57:58;4.82;;;3.67;;
62880;SDS011;48969;49.934;8.596;2023-08-24T09:00:24;4.78;;;4.18;;
62880;SDS011;48969;49.934;8.596;2023-08-24T09:02:51;6.60;;;4.15;;
62880;SDS011;48969;49.934;8.596;2023-08-24T09:05:18;4.28;;;3.55;;
62880;SDS011;48969;49.934;8.596;2023-08-24T09:07:45;5.22;;;3.47;;
62880;SDS011;48969;49.934;8.596;2023-08-24T09:10:12;4.78;;;4.05;;
62880;SDS011;48969;49.934;8.596;2023-08-24T09:12:37;4.95;;;3.55;;
62880;SDS011;48969;49.934;8.596;2023-08-24T09:15:03;4.80;;;3.65;;
62880;SDS011;48969;49.934;8.596;2023-08-24T09:17:32;4.70;;;3.80;;
62880;SDS011;48969;49.934;8.596;2023-08-24T09:19:59;5.22;;;4.05;;
62880;SDS011;48969;49.934;8.596;2023-08-24T09:22:34;4.43;;;3.95;;
62880;SDS011;48969;49.934;8.596;2023-08-24T09:25:01;5.30;;;4.03;;
62880;SDS011;48969;49.934;8.596;2023-08-24T09:27:29;5.53;;;4.30;;
62880;SDS011;48969;49.934;8.596;2023-08-24T09:29:54;4.75;;;4.07;;
62880;SDS011;48969;49.934;8.596;2023-08-24T09:32:29;5.13;;;3.97;;
62880;SDS011;48969;49.934;8.596;2023-08-24T09:35:02;4.80;;;4.05;;
62880;SDS011;48969;49.934;8.596;2023-08-24T09:37:32;5.43;;;3.90;;
62880;SDS011;48969;49.934;8.596;2023-08-24T09:40:07;4.85;;;4.05;;
62880;SDS011;48969;49.934;8.596;2023-08-24T09:42:40;5.95;;;4.78;;
62880;SDS011;48969;49.934;8.596;2023-08-24T09:45:07;4.55;;;3.90;;
62880;SDS011;48969;49.934;8.596;2023-08-24T09:47:35;6.30;;;4.30;;
62880;SDS011;48969;49.934;8.596;2023-08-24T09:50:01;7.32;;;4.47;;
62880;SDS011;48969;49.934;8.596;2023-08-24T09:52:28;4.40;;;3.75;;
62880;SDS011;48969;49.934;8.596;2023-08-24T09:54:56;5.13;;;4.18;;
62880;SDS011;48969;49.934;8.596;2023-08-24T09:57:39;4.63;;;3.72;;
62880;SDS011;48969;49.934;8.596;2023-08-24T10:00:08;4.88;;;3.80;;
62880;SDS011;48969;49.934;8.596;2023-08-24T10:05:12;5.03;;;4.00;;
62880;SDS011;48969;49.934;8.596;2023-08-24T10:07:45;7.32;;;4.25;;
62880;SDS011;48969;49.934;8.596;2023-08-24T10:10:16;3.95;;;3.65;;
62880;SDS011;48969;49.934;8.596;2023-08-24T10:12:47;5.45;;;4.07;;
62880;SDS011;48969;49.934;8.596;2023-08-24T10:15:15;4.85;;;3.90;;
62880;SDS011;48969;49.934;8.596;2023-08-24T10:17:43;5.80;;;4.10;;
62880;SDS011;48969;49.934;8.596;2023-08-24T10:20:10;4.18;;;3.35;;
62880;SDS011;48969;49.934;8.596;2023-08-24T10:22:36;4.82;;;3.90;;
62880;SDS011;48969;49.934;8.596;2023-08-24T10:25:02;6.80;;;4.20;;
62880;SDS011;48969;49.934;8.596;2023-08-24T10:27:28;5.10;;;3.80;;
62880;SDS011;48969;49.934;8.596;2023-08-24T10:29:55;5.50;;;3.30;;
62880;SDS011;48969;49.934;8.596;2023-08-24T10:32:20;4.43;;;3.50;;
62880;SDS011;48969;49.934;8.596;2023-08-24T10:34:47;5.47;;;3.55;;
62880;SDS011;48969;49.934;8.596;2023-08-24T10:37:12;3.65;;;3.20;;
62880;SDS011;48969;49.934;8.596;2023-08-24T10:39:47;5.43;;;3.53;;
62880;SDS011;48969;49.934;8.596;2023-08-24T10:42:13;4.68;;;3.42;;
62880;SDS011;48969;49.934;8.596;2023-08-24T10:44:39;3.88;;;3.40;;
62880;SDS011;48969;49.934;8.596;2023-08-24T10:47:12;3.42;;;3.13;;
62880;SDS011;48969;49.934;8.596;2023-08-24T10:49:44;5.63;;;3.42;;
62880;SDS011;48969;49.934;8.596;2023-08-24T10:55:00;4.43;;;3.33;;
62880;SDS011;48969;49.934;8.596;2023-08-24T10:57:37;6.13;;;3.40;;
62880;SDS011;48969;49.934;8.596;2023-08-24T11:05:17;5.40;;;3.03;;
62880;SDS011;48969;49.934;8.596;2023-08-24T11:07:53;3.45;;;3.15;;
62880;SDS011;48969;49.934;8.596;2023-08-24T11:10:20;10.15;;;3.83;;
62880;SDS011;48969;49.934;8.596;2023-08-24T11:15:32;4.35;;;3.42;;
62880;SDS011;48969;49.934;8.596;2023-08-24T11:20:59;4.28;;;3.47;;
62880;SDS011;48969;49.934;8.596;2023-08-24T11:23:29;5.10;;;3.40;;
62880;SDS011;48969;49.934;8.596;2023-08-24T11:25:55;3.55;;;3.15;;
62880;SDS011;48969;49.934;8.596;2023-08-24T11:28:23;4.55;;;3.00;;
62880;SDS011;48969;49.934;8.596;2023-08-24T11:30:50;5.18;;;2.90;;
62880;SDS011;48969;49.934;8.596;2023-08-24T11:33:16;5.20;;;3.17;;
62880;SDS011;48969;49.934;8.596;2023-08-24T11:35:45;4.05;;;3.50;;
62880;SDS011;48969;49.934;8.596;2023-08-24T11:38:11;4.53;;;3.17;;
62880;SDS011;48969;49.934;8.596;2023-08-24T11:40:37;3.75;;;3.20;;
62880;SDS011;48969;49.934;8.596;2023-08-24T11:43:04;3.42;;;3.00;;
62880;SDS011;48969;49.934;8.596;2023-08-24T11:45:31;4.70;;;2.95;;
62880;SDS011;48969;49.934;8.596;2023-08-24T11:47:58;4.80;;;3.10;;
62880;SDS011;48969;49.934;8.596;2023-08-24T11:50:27;4.28;;;3.30;;
62880;SDS011;48969;49.934;8.596;2023-08-24T11:52:53;4.50;;;3.08;;
62880;SDS011;48969;49.934;8.596;2023-08-24T11:55:20;5.50;;;3.28;;
62880;SDS011;48969;49.934;8.596;2023-08-24T11:57:46;3.65;;;2.83;;
62880;SDS011;48969;49.934;8.596;2023-08-24T12:00:12;5.38;;;3.40;;
62880;SDS011;48969;49.934;8.596;2023-08-24T12:02:39;5.47;;;3.10;;
62880;SDS011;48969;49.934;8.596;2023-08-24T12:05:06;4.50;;;3.13;;
62880;SDS011;48969;49.934;8.596;2023-08-24T12:07:32;4.20;;;3.05;;
62880;SDS011;48969;49.934;8.596;2023-08-24T12:09:59;4.43;;;2.95;;
62880;SDS011;48969;49.934;8.596;2023-08-24T12:12:26;5.20;;;3.08;;
62880;SDS011;48969;49.934;8.596;2023-08-24T12:14:52;5.28;;;3.03;;
62880;SDS011;48969;49.934;8.596;2023-08-24T12:17:18;4.07;;;2.88;;
62880;SDS011;48969;49.934;8.596;2023-08-24T12:19:44;3.30;;;2.58;;
62880;SDS011;48969;49.934;8.596;2023-08-24T12:22:31;5.40;;;3.22;;
62880;SDS011;48969;49.934;8.596;2023-08-24T12:24:57;3.25;;;2.90;;
62880;SDS011;48969;49.934;8.596;2023-08-24T12:27:23;3.97;;;3.20;;
62880;SDS011;48969;49.934;8.596;2023-08-24T12:29:50;3.35;;;3.00;;
62880;SDS011;48969;49.934;8.596;2023-08-24T12:32:16;3.72;;;3.10;;
62880;SDS011;48969;49.934;8.596;2023-08-24T12:34:48;4.38;;;2.67;;
62880;SDS011;48969;49.934;8.596;2023-08-24T12:37:16;5.38;;;3.38;;
62880;SDS011;48969;49.934;8.596;2023-08-24T12:39:42;4.40;;;3.05;;
62880;SDS011;48969;49.934;8.596;2023-08-24T12:42:07;4.32;;;3.28;;
62880;SDS011;48969;49.934;8.596;2023-08-24T12:44:33;3.45;;;3.08;;
62880;SDS011;48969;49.934;8.596;2023-08-24T12:46:58;4.43;;;3.38;;
62880;SDS011;48969;49.934;8.596;2023-08-24T12:49:24;4.72;;;3.42;;
62880;SDS011;48969;49.934;8.596;2023-08-24T12:51:49;4.00;;;2.95;;
62880;SDS011;48969;49.934;8.596;2023-08-24T12:54:14;4.47;;;3.05;;
62880;SDS011;48969;49.934;8.596;2023-08-24T12:56:40;3.88;;;3.47;;
62880;SDS011;48969;49.934;8.596;2023-08-24T12:59:06;4.53;;;3.00;;
62880;SDS011;48969;49.934;8.596;2023-08-24T13:01:31;4.05;;;3.00;;
62880;SDS011;48969;49.934;8.596;2023-08-24T13:03:57;4.53;;;3.30;;
62880;SDS011;48969;49.934;8.596;2023-08-24T13:06:22;5.97;;;3.13;;
62880;SDS011;48969;49.934;8.596;2023-08-24T13:08:47;5.03;;;3.47;;
62880;SDS011;48969;49.934;8.596;2023-08-24T13:11:13;4.90;;;3.15;;
62880;SDS011;48969;49.934;8.596;2023-08-24T13:13:38;5.35;;;2.97;;
62880;SDS011;48969;49.934;8.596;2023-08-24T13:16:06;6.50;;;3.47;;
62880;SDS011;48969;49.934;8.596;2023-08-24T13:18:32;4.78;;;3.33;;
62880;SDS011;48969;49.934;8.596;2023-08-24T13:20:57;4.90;;;3.08;;
62880;SDS011;48969;49.934;8.596;2023-08-24T13:23:22;3.90;;;3.25;;
62880;SDS011;48969;49.934;8.596;2023-08-24T13:25:48;3.85;;;3.00;;
62880;SDS011;48969;49.934;8.596;2023-08-24T13:28:13;6.43;;;3.13;;
62880;SDS011;48969;49.934;8.596;2023-08-24T13:30:38;4.05;;;3.28;;
62880;SDS011;48969;49.934;8.596;2023-08-24T13:33:05;4.95;;;3.10;;
62880;SDS011;48969;49.934;8.596;2023-08-24T13:35:31;7.88;;;3.00;;
62880;SDS011;48969;49.934;8.596;2023-08-24T13:37:57;7.90;;;3.20;;
62880;SDS011;48969;49.934;8.596;2023-08-24T13:40:22;5.40;;;3.80;;
62880;SDS011;48969;49.934;8.596;2023-08-24T13:42:47;4.68;;;3.30;;
62880;SDS011;48969;49.934;8.596;2023-08-24T13:45:13;5.75;;;3.25;;
62880;SDS011;48969;49.934;8.596;2023-08-24T13:47:38;5.65;;;2.95;;
62880;SDS011;48969;49.934;8.596;2023-08-24T13:50:03;5.93;;;3.10;;
62880;SDS011;48969;49.934;8.596;2023-08-24T13:52:29;3.50;;;3.20;;
62880;SDS011;48969;49.934;8.596;2023-08-24T13:54:54;7.35;;;3.35;;
62880;SDS011;48969;49.934;8.596;2023-08-24T13:57:20;4.55;;;3.20;;
62880;SDS011;48969;49.934;8.596;2023-08-24T13:59:45;4.35;;;3.45;;
62880;SDS011;48969;49.934;8.596;2023-08-24T14:02:11;4.30;;;3.50;;
62880;SDS011;48969;49.934;8.596;2023-08-24T14:04:37;4.25;;;3.10;;
62880;SDS011;48969;49.934;8.596;2023-08-24T14:07:03;5.00;;;3.60;;
62880;SDS011;48969;49.934;8.596;2023-08-24T14:09:28;3.72;;;3.13;;
62880;SDS011;48969;49.934;8.596;2023-08-24T14:11:53;4.15;;;3.33;;
62880;SDS011;48969;49.934;8.596;2023-08-24T14:14:18;3.60;;;2.78;;
62880;SDS011;48969;49.934;8.596;2023-08-24T14:16:44;4.82;;;3.08;;
62880;SDS011;48969;49.934;8.596;2023-08-24T14:19:10;4.10;;;3.20;;
62880;SDS011;48969;49.934;8.596;2023-08-24T14:21:36;5.63;;;3.25;;
62880;SDS011;48969;49.934;8.596;2023-08-24T14:24:02;4.95;;;3.10;;
62880;SDS011;48969;49.934;8.596;2023-08-24T14:26:27;5.55;;;3.53;;
62880;SDS011;48969;49.934;8.596;2023-08-24T14:28:56;4.13;;;3.20;;
62880;SDS011;48969;49.934;8.596;2023-08-24T14:31:29;5.25;;;3.60;;
62880;SDS011;48969;49.934;8.596;2023-08-24T14:33:55;6.65;;;3.53;;
62880;SDS011;48969;49.934;8.596;2023-08-24T14:36:21;3.83;;;3.13;;
62880;SDS011;48969;49.934;8.596;2023-08-24T14:38:46;6.18;;;3.17;;
62880;SDS011;48969;49.934;8.596;2023-08-24T14:41:13;4.32;;;3.55;;
62880;SDS011;48969;49.934;8.596;2023-08-24T14:43:39;3.45;;;3.05;;
62880;SDS011;48969;49.934;8.596;2023-08-24T14:46:05;4.15;;;3.22;;
62880;SDS011;48969;49.934;8.596;2023-08-24T14:48:31;6.05;;;3.20;;
62880;SDS011;48969;49.934;8.596;2023-08-24T14:50:56;6.50;;;3.78;;
62880;SDS011;48969;49.934;8.596;2023-08-24T14:53:22;5.75;;;3.53;;
62880;SDS011;48969;49.934;8.596;2023-08-24T14:55:48;6.55;;;3.70;;
62880;SDS011;48969;49.934;8.596;2023-08-24T14:58:13;4.65;;;3.17;;
62880;SDS011;48969;49.934;8.596;2023-08-24T15:00:38;6.43;;;3.67;;